Time;durP1;ratioP1;P1;durP2;ratioP2;P2;SDS_P1;SDS_P2;PMS_P1;PMS_P2;Temp;Humidity;BMP_temperature;BMP_pressure;BME280_temperature;BME280_humidity;BME280_pressure;Samples;Min_cycle;Max_cycle;Signal;HPM_P1;HPM_P2
2021/09/09 00:02:03;;;;;;;14.65;10.80;;;;;;;11.84;73.67;100398.51;1736776;79;21357;-55
2021/09/09 00:04:30;;;;;;;16.55;11.33;;;;;;;11.85;73.85;100403.84;1738339;79;21060;-55
2021/09/09 00:06:59;;;;;;;16.00;11.53;;;;;;;11.87;73.91;100400.61;1736585;79;20998;-55
2021/09/09 00:09:25;;;;;;;14.35;12.03;;;;;;;11.87;74.03;100394.34;1740625;79;22276;-55
2021/09/09 00:11:53;;;;;;;17.10;12.68;;;;;;;11.87;74.14;100401.97;1735592;80;20958;-55
2021/09/09 00:14:21;;;;;;;21.15;14.23;;;;;;;11.88;74.22;100400.14;1729590;80;21338;-55
2021/09/09 00:16:49;;;;;;;19.20;12.80;;;;;;;11.89;74.38;100400.09;1727440;80;20937;-55
2021/09/09 00:19:17;;;;;;;18.67;11.40;;;;;;;11.89;74.46;100400.09;1742910;79;20934;-55
2021/09/09 00:21:43;;;;;;;14.80;10.93;;;;;;;11.90;74.52;100393.75;1753075;79;21074;-55
2021/09/09 00:24:10;;;;;;;15.05;10.98;;;;;;;11.89;74.51;100390.64;1737911;79;20969;-54
2021/09/09 00:26:37;;;;;;;15.08;10.32;;;;;;;11.89;74.56;100401.44;1754219;79;20965;-55
2021/09/09 00:29:05;;;;;;;15.10;11.10;;;;;;;11.90;74.64;100399.61;1752173;79;20956;-55
2021/09/09 00:31:33;;;;;;;16.37;10.32;;;;;;;11.92;74.63;100403.09;1738958;79;21497;-55
2021/09/09 00:34:01;;;;;;;14.47;10.43;;;;;;;11.91;74.59;100400.02;1724525;80;21840;-55
2021/09/09 00:36:28;;;;;;;16.82;12.05;;;;;;;11.89;74.49;100396.04;1754421;79;20941;-54
2021/09/09 00:38:55;;;;;;;17.10;11.73;;;;;;;11.89;74.40;100398.73;1740910;79;21029;-54
2021/09/09 00:41:23;;;;;;;15.95;12.90;;;;;;;11.87;74.35;100401.97;1727562;80;20941;-54
2021/09/09 00:43:49;;;;;;;18.62;12.68;;;;;;;11.86;74.30;100398.86;1740614;79;20985;-54
2021/09/09 00:46:23;;;;;;;16.70;11.68;;;;;;;11.85;74.16;100400.27;1753250;79;22143;-54
2021/09/09 00:48:51;;;;;;;11.45;9.60;;;;;;;11.83;74.12;100401.67;1737821;79;21255;-54
2021/09/09 00:51:17;;;;;;;15.20;10.63;;;;;;;11.79;74.07;100399.19;1734692;80;20934;-54
2021/09/09 00:53:43;;;;;;;13.03;9.75;;;;;;;11.76;74.00;100408.28;1737412;79;20918;-54
2021/09/09 00:56:10;;;;;;;17.48;10.95;;;;;;;11.74;73.92;100403.37;1710615;82;21107;-53
2021/09/09 00:58:39;;;;;;;15.72;11.25;;;;;;;11.75;73.96;100411.91;1721058;80;22244;-53
2021/09/09 01:01:05;;;;;;;14.47;11.08;;;;;;;11.72;73.96;100403.47;1739384;79;21053;-54
2021/09/09 01:03:31;;;;;;;16.52;11.28;;;;;;;11.71;73.88;100407.58;1737702;79;21096;-54
2021/09/09 01:05:58;;;;;;;15.68;11.60;;;;;;;11.67;73.75;100401.42;1737426;79;21041;-54
2021/09/09 01:08:24;;;;;;;21.25;13.03;;;;;;;11.65;73.61;100405.16;1700272;79;21105;-54
2021/09/09 01:10:52;;;;;;;14.23;11.80;;;;;;;11.59;73.48;100399.99;1739860;79;21084;-54
2021/09/09 01:13:18;;;;;;;13.05;10.30;;;;;;;11.54;73.34;100402.02;1738351;79;20917;-54
2021/09/09 01:15:45;;;;;;;15.32;10.60;;;;;;;11.51;73.23;100400.79;1733637;79;21471;-53
2021/09/09 01:18:13;;;;;;;14.45;9.73;;;;;;;11.48;73.27;100402.28;1737134;79;21398;-54
2021/09/09 01:20:41;;;;;;;14.15;10.28;;;;;;;11.45;73.19;100401.05;1738413;79;21088;-53
2021/09/09 01:23:07;;;;;;;13.68;10.70;;;;;;;11.42;73.15;100403.39;1735245;79;21153;-54
2021/09/09 01:25:34;;;;;;;13.25;10.05;;;;;;;11.40;73.28;100401.73;1735446;79;21094;-53
2021/09/09 01:28:01;;;;;;;14.87;10.80;;;;;;;11.37;73.20;100400.02;1737221;79;21068;-53
2021/09/09 01:30:27;;;;;;;13.25;10.53;;;;;;;11.34;73.13;100406.41;1740260;79;21029;-53
2021/09/09 01:32:54;;;;;;;16.40;11.50;;;;;;;11.32;73.03;100408.28;1739476;79;20993;-53
2021/09/09 01:35:20;;;;;;;14.28;11.48;;;;;;;11.30;72.88;100405.27;1740102;79;21067;-54
2021/09/09 01:37:47;;;;;;;11.63;9.33;;;;;;;11.27;72.96;100402.69;1741289;79;20882;-53
2021/09/09 01:40:13;;;;;;;11.18;9.45;;;;;;;11.23;72.92;100402.38;1739738;79;21012;-53
2021/09/09 01:42:39;;;;;;;11.25;8.75;;;;;;;11.19;72.79;100406.16;1739506;79;22385;-54
2021/09/09 01:45:08;;;;;;;20.52;9.23;;;;;;;11.14;72.87;100406.36;1737574;79;21121;-54
2021/09/09 01:47:35;;;;;;;14.05;10.20;;;;;;;11.12;73.06;100395.23;1737584;79;21647;-54
2021/09/09 01:50:01;;;;;;;17.77;11.18;;;;;;;11.11;73.15;100397.51;1734133;79;21064;-54
2021/09/09 01:52:27;;;;;;;13.90;10.80;;;;;;;11.09;73.13;100398.91;1735221;79;21025;-53
2021/09/09 01:54:54;;;;;;;13.75;10.32;;;;;;;11.07;73.08;100392.70;1737400;79;21084;-54
2021/09/09 01:57:20;;;;;;;11.85;9.83;;;;;;;11.04;73.14;100392.84;1740478;79;21100;-56
2021/09/09 01:59:47;;;;;;;11.73;10.10;;;;;;;11.02;73.12;100397.88;1736224;79;21133;-54
2021/09/09 02:02:13;;;;;;;10.58;8.95;;;;;;;10.98;73.11;100392.59;1732295;80;21167;-53
2021/09/09 02:04:39;;;;;;;11.35;9.08;;;;;;;10.97;73.17;100396.72;1750859;79;21672;-53
2021/09/09 02:07:06;;;;;;;10.35;8.13;;;;;;;10.96;73.06;100394.97;1734201;79;21762;-53
2021/09/09 02:09:32;;;;;;;12.43;8.95;;;;;;;10.94;73.12;100398.18;1747379;79;21685;-53
2021/09/09 02:11:58;;;;;;;11.38;9.33;;;;;;;10.94;73.18;100392.80;1735724;79;21064;-53
2021/09/09 02:14:25;;;;;;;11.30;9.45;;;;;;;10.93;73.25;100394.61;1719297;80;21041;-54
2021/09/09 02:16:53;;;;;;;12.63;9.55;;;;;;;10.94;73.29;100396.37;1749714;79;21147;-53
2021/09/09 02:19:19;;;;;;;15.70;9.93;;;;;;;10.94;73.36;100395.02;1735458;79;21068;-54
2021/09/09 02:21:46;;;;;;;16.45;11.12;;;;;;;10.94;73.25;100387.41;1721211;80;21115;-53
2021/09/09 02:24:12;;;;;;;14.55;11.60;;;;;;;10.92;73.29;100390.16;1720699;80;21854;-54
2021/09/09 02:26:40;;;;;;;14.20;10.98;;;;;;;10.90;73.29;100391.14;1731941;80;20980;-53
2021/09/09 02:29:08;;;;;;;19.30;11.78;;;;;;;10.88;73.41;100386.31;1718677;80;21052;-53
2021/09/09 02:31:35;;;;;;;14.03;9.95;;;;;;;10.86;73.55;100386.84;1722385;80;21456;-53
2021/09/09 02:34:01;;;;;;;12.88;9.23;;;;;;;10.85;73.64;100382.38;1736865;79;21382;-53
2021/09/09 02:36:30;;;;;;;12.28;8.93;;;;;;;10.83;73.62;100388.29;1747737;79;21578;-53
2021/09/09 02:38:56;;;;;;;13.43;9.23;;;;;;;10.80;73.69;100384.39;1749558;79;21071;-53
2021/09/09 02:41:22;;;;;;;12.95;8.38;;;;;;;10.78;73.72;100388.48;1737575;79;21057;-53
2021/09/09 02:43:49;;;;;;;12.93;9.33;;;;;;;10.78;73.84;100388.95;1738860;79;21544;-53
2021/09/09 02:46:17;;;;;;;12.95;8.95;;;;;;;10.80;73.97;100386.59;1751037;79;21189;-53
2021/09/09 02:48:43;;;;;;;15.15;9.68;;;;;;;10.81;73.96;100390.16;1752741;79;21554;-53
2021/09/09 02:51:09;;;;;;;16.55;11.30;;;;;;;10.81;73.97;100392.84;1752044;79;21549;-53
2021/09/09 02:53:37;;;;;;;14.53;10.23;;;;;;;10.82;73.94;100391.91;1735284;79;21020;-53
2021/09/09 02:56:05;;;;;;;13.72;10.75;;;;;;;10.81;74.00;100387.00;1718781;80;22610;-53
2021/09/09 02:58:31;;;;;;;14.13;9.75;;;;;;;10.79;74.01;100389.36;1738522;79;21480;-53
2021/09/09 03:00:58;;;;;;;10.82;9.25;;;;;;;10.78;73.94;100392.52;1729216;79;21545;-53
2021/09/09 03:03:24;;;;;;;12.23;9.20;;;;;;;10.77;74.06;100382.69;1733882;79;21092;-53
2021/09/09 03:05:51;;;;;;;9.43;7.90;;;;;;;10.76;74.21;100384.97;1730950;79;21096;-53
2021/09/09 03:08:18;;;;;;;12.13;9.75;;;;;;;10.75;74.17;100385.90;1732844;79;21184;-53
2021/09/09 03:10:46;;;;;;;14.58;8.78;;;;;;;10.75;74.18;100386.36;1729159;79;21116;-53
2021/09/09 03:13:12;;;;;;;16.15;10.50;;;;;;;10.74;74.18;100384.14;1732411;79;21085;-53
2021/09/09 03:15:40;;;;;;;16.17;11.12;;;;;;;10.75;74.20;100389.05;1731043;79;21076;-53
2021/09/09 03:18:07;;;;;;;14.93;10.60;;;;;;;10.75;74.13;100386.36;1735090;79;21102;-53
2021/09/09 03:20:33;;;;;;;14.83;12.23;;;;;;;10.75;74.13;100383.67;1734805;79;21558;-53
2021/09/09 03:23:01;;;;;;;14.87;10.60;;;;;;;10.73;74.14;100379.69;1733621;79;21100;-53
2021/09/09 03:25:28;;;;;;;12.18;10.95;;;;;;;10.71;74.17;100382.05;1734682;79;21093;-54
2021/09/09 03:27:54;;;;;;;15.68;11.03;;;;;;;10.70;74.17;100383.87;1732833;79;21086;-53
2021/09/09 03:30:20;;;;;;;16.42;12.20;;;;;;;10.69;74.24;100384.80;1731931;79;21073;-53
2021/09/09 03:32:47;;;;;;;15.20;10.95;;;;;;;10.71;74.42;100385.63;1738096;79;20949;-53
2021/09/09 03:35:13;;;;;;;13.05;9.48;;;;;;;10.72;74.52;100385.16;1739978;79;21037;-53
2021/09/09 03:37:39;;;;;;;16.25;10.98;;;;;;;10.73;74.63;100389.58;1735493;79;21933;-53
2021/09/09 03:40:06;;;;;;;12.00;10.10;;;;;;;10.75;74.76;100393.98;1738587;79;20953;-53
2021/09/09 03:42:33;;;;;;;14.40;11.38;;;;;;;10.77;74.88;100392.58;1746818;79;20937;-53
2021/09/09 03:45:01;;;;;;;14.18;11.88;;;;;;;10.79;74.98;100390.70;1744005;79;21058;-53
2021/09/09 03:47:27;;;;;;;15.88;12.82;;;;;;;10.81;75.09;100396.42;1741444;79;21013;-53
2021/09/09 03:49:53;;;;;;;14.30;12.33;;;;;;;10.82;75.12;100399.53;1737334;79;21894;-53
2021/09/09 03:52:20;;;;;;;18.15;11.68;;;;;;;10.83;75.20;100397.72;1740294;79;21372;-53
2021/09/09 03:54:48;;;;;;;17.32;10.78;;;;;;;10.83;75.34;100395.91;1739503;79;21158;-53
2021/09/09 03:57:14;;;;;;;14.80;11.10;;;;;;;10.83;75.42;100403.98;1734074;80;21056;-53
2021/09/09 03:59:41;;;;;;;11.45;9.10;;;;;;;10.84;75.55;100407.09;1744309;79;21135;-53
2021/09/09 04:02:07;;;;;;;9.33;7.83;;;;;;;10.86;75.70;100405.69;1745061;78;21081;-53
2021/09/09 04:04:33;;;;;;;12.20;8.83;;;;;;;10.88;75.82;100408.73;1745244;78;21112;-53
2021/09/09 04:06:59;;;;;;;11.00;9.13;;;;;;;10.93;75.93;100413.46;1742954;78;21086;-53
2021/09/09 04:09:26;;;;;;;12.65;10.58;;;;;;;10.97;75.98;100412.89;1747901;78;21097;-53
2021/09/09 04:11:52;;;;;;;13.68;10.38;;;;;;;10.99;75.96;100412.33;1743127;78;21417;-53
2021/09/09 04:14:20;;;;;;;16.52;11.40;;;;;;;11.02;76.02;100404.61;1743134;78;21019;-53
2021/09/09 04:16:48;;;;;;;12.23;9.28;;;;;;;11.05;76.05;100410.77;1739367;78;21040;-54
2021/09/09 04:19:14;;;;;;;14.10;10.28;;;;;;;11.10;76.16;100406.53;1748836;78;21481;-53
2021/09/09 04:21:42;;;;;;;10.13;8.50;;;;;;;11.16;76.27;100409.84;1744179;78;21100;-53
2021/09/09 04:24:08;;;;;;;10.82;8.98;;;;;;;11.22;76.33;100404.70;1748063;78;21067;-53
2021/09/09 04:26:35;;;;;;;15.35;9.13;;;;;;;11.28;76.28;100409.83;1742731;78;21140;-53
2021/09/09 04:29:01;;;;;;;11.45;9.40;;;;;;;11.32;76.30;100405.59;1735510;79;21073;-53
2021/09/09 04:31:28;;;;;;;10.70;7.85;;;;;;;11.37;76.34;100402.25;1758713;78;21100;-53
2021/09/09 04:33:54;;;;;;;10.78;8.60;;;;;;;11.46;76.53;100403.69;1763311;78;21351;-53
2021/09/09 04:36:21;;;;;;;13.75;9.15;;;;;;;11.63;76.61;100404.33;1758440;78;21271;-53
2021/09/09 04:38:47;;;;;;;11.88;9.35;;;;;;;11.84;76.69;100403.91;1762419;78;22327;-53
2021/09/09 04:41:15;;;;;;;11.73;10.55;;;;;;;12.07;76.66;100395.70;1761094;78;21571;-53
2021/09/09 04:43:41;;;;;;;15.05;10.78;;;;;;;12.35;76.56;100403.42;1759323;78;21367;-53
2021/09/09 04:46:08;;;;;;;13.40;9.73;;;;;;;12.59;76.24;100399.60;1763974;78;21272;-53
2021/09/09 04:48:34;;;;;;;12.60;10.30;;;;;;;12.79;75.83;100390.11;1760969;78;20973;-53
2021/09/09 04:51:00;;;;;;;9.35;8.20;;;;;;;12.97;75.55;100388.83;1762129;78;21108;-53
2021/09/09 04:53:27;;;;;;;13.88;9.48;;;;;;;13.07;75.30;100393.73;1761137;78;21108;-53
2021/09/09 04:55:54;;;;;;;12.18;10.10;;;;;;;13.18;75.06;100392.74;1761123;78;21017;-53
2021/09/09 04:58:21;;;;;;;14.85;11.22;;;;;;;13.26;74.85;100388.34;1736478;80;21076;-53
2021/09/09 05:00:47;;;;;;;12.73;9.88;;;;;;;13.35;74.64;100383.84;1762578;78;21052;-53
2021/09/09 05:03:14;;;;;;;17.70;10.93;;;;;;;13.44;74.55;100387.41;1762389;78;21167;-53
2021/09/09 05:05:41;;;;;;;13.03;10.20;;;;;;;13.54;74.31;100385.12;1761702;78;21661;-53
2021/09/09 05:08:07;;;;;;;13.90;10.50;;;;;;;13.62;74.04;100382.42;1751733;79;21090;-52
2021/09/09 05:10:33;;;;;;;15.75;10.65;;;;;;;13.73;73.95;100385.94;1763309;78;22233;-53
2021/09/09 05:13:00;;;;;;;15.15;10.05;;;;;;;13.83;73.74;100379.59;1759730;78;21075;-53
2021/09/09 05:15:27;;;;;;;17.80;8.88;;;;;;;13.94;73.59;100381.27;1762420;78;21084;-53
2021/09/09 05:20:31;;;;;;;14.93;10.37;;;;;;;14.23;73.24;100379.72;1860867;75;22149;-54
2021/09/09 05:22:57;;;;;;;14.45;9.48;;;;;;;14.31;72.95;100382.89;1829525;75;21443;-54
2021/09/09 05:25:23;;;;;;;18.48;11.03;;;;;;;14.43;72.57;100378.22;1835286;75;21584;-54
2021/09/09 05:27:51;;;;;;;14.45;10.53;;;;;;;14.65;72.11;100375.19;1834873;75;22453;-54
2021/09/09 05:30:19;;;;;;;15.38;10.50;;;;;;;14.65;72.11;100375.19;1828185;75;21090;-54
2021/09/09 05:32:46;;;;;;;15.43;11.35;;;;;;;14.75;71.63;100375.96;1838250;75;21336;-54
2021/09/09 05:35:12;;;;;;;11.88;9.25;;;;;;;14.85;71.43;100368.67;1838937;75;21573;-54
2021/09/09 05:37:39;;;;;;;15.28;11.33;;;;;;;15.04;70.93;100370.75;1840285;75;21485;-54
2021/09/09 05:40:08;;;;;;;13.18;9.00;;;;;;;15.18;70.66;100366.77;1836630;75;21049;-54
2021/09/09 05:42:34;;;;;;;10.68;8.68;;;;;;;15.18;70.66;100366.77;1783891;78;21772;-54
2021/09/09 05:45:00;;;;;;;10.55;8.25;;;;;;;15.29;70.37;100364.80;1765293;79;21093;-54
2021/09/09 05:47:27;;;;;;;10.03;9.03;;;;;;;15.41;69.81;100369.49;1801734;77;21068;-54
2021/09/09 05:49:53;;;;;;;14.60;8.93;;;;;;;15.54;69.24;100371.05;1776192;78;21710;-53
2021/09/09 05:52:20;;;;;;;14.87;8.88;;;;;;;15.66;68.69;100377.09;1775002;78;21559;-53
2021/09/09 05:54:47;;;;;;;10.43;8.70;;;;;;;15.76;68.33;100372.87;1776548;78;22528;-54
2021/09/09 05:57:14;;;;;;;10.72;8.60;;;;;;;15.85;67.91;100367.77;1781625;78;21108;-54
2021/09/09 05:59:42;;;;;;;12.53;7.87;;;;;;;15.93;67.67;100364.59;1782575;78;21065;-54
2021/09/09 06:02:16;;;;;;;12.15;7.58;;;;;;;16.01;67.26;100366.84;1782928;78;21091;-53
2021/09/09 06:04:42;;;;;;;9.25;8.23;;;;;;;16.06;66.48;100365.61;1803930;78;20947;-53
2021/09/09 06:07:10;;;;;;;17.73;8.18;;;;;;;16.11;66.04;100366.67;1806815;78;20898;-54
2021/09/09 06:09:40;;;;;;;13.22;7.28;;;;;;;16.15;65.93;100369.61;1802198;78;20950;-53
2021/09/09 06:12:07;;;;;;;8.33;7.47;;;;;;;16.21;65.64;100364.66;1807596;77;21982;-53
2021/09/09 06:14:34;;;;;;;8.70;6.47;;;;;;;16.31;65.41;100364.97;1802263;77;21130;-54
2021/09/09 06:17:03;;;;;;;9.43;7.08;;;;;;;16.39;65.34;100364.01;1806507;78;20922;-54
2021/09/09 06:19:29;;;;;;;7.25;6.50;;;;;;;16.48;65.07;100362.08;1803556;77;20914;-54
2021/09/09 06:21:55;;;;;;;9.55;6.92;;;;;;;16.57;64.79;100361.50;1807514;78;20969;-54
2021/09/09 06:24:22;;;;;;;8.85;7.28;;;;;;;16.68;64.26;100357.23;1807876;77;20906;-54
2021/09/09 06:26:48;;;;;;;8.95;7.05;;;;;;;16.77;64.01;100364.31;1786231;79;21403;-54
2021/09/09 06:29:15;;;;;;;11.48;7.50;;;;;;;16.84;63.74;100362.10;1789378;79;20966;-54
2021/09/09 06:31:41;;;;;;;9.03;6.87;;;;;;;16.90;63.65;100362.58;1788675;79;20953;-54
2021/09/09 06:34:07;;;;;;;8.80;6.75;;;;;;;16.96;63.50;100354.49;1786763;79;20907;-54
2021/09/09 06:36:34;;;;;;;11.85;8.23;;;;;;;17.05;63.49;100367.98;1782623;78;20977;-54
2021/09/09 06:39:01;;;;;;;9.20;6.87;;;;;;;17.10;63.50;100356.33;1777759;79;21064;-55
2021/09/09 06:41:27;;;;;;;6.40;5.50;;;;;;;17.15;63.12;100356.41;1779061;79;21123;-54
2021/09/09 06:43:54;;;;;;;9.98;6.28;;;;;;;17.21;62.44;100363.28;1802886;77;21081;-54
2021/09/09 06:46:20;;;;;;;9.03;6.40;;;;;;;17.25;62.25;100367.56;1781072;78;21048;-54
2021/09/09 06:48:47;;;;;;;7.60;6.10;;;;;;;17.30;62.03;100369.47;1780879;79;21041;-54
2021/09/09 06:51:16;;;;;;;8.68;6.25;;;;;;;17.36;61.64;100364.49;1779163;78;21057;-54
2021/09/09 06:53:42;;;;;;;12.75;6.08;;;;;;;17.42;61.63;100363.72;1779518;79;20980;-54
2021/09/09 06:56:08;;;;;;;12.23;6.00;;;;;;;17.48;61.79;100367.38;1804264;77;21069;-54
2021/09/09 06:58:35;;;;;;;6.60;5.47;;;;;;;17.55;61.41;100365.98;1800961;77;21087;-54
2021/09/09 07:01:01;;;;;;;10.40;6.55;;;;;;;17.61;61.04;100375.09;1800113;77;21052;-54
2021/09/09 07:03:30;;;;;;;7.53;6.83;;;;;;;17.66;60.83;100373.86;1801989;78;21545;-55
2021/09/09 07:05:56;;;;;;;11.48;6.15;;;;;;;17.71;60.79;100375.77;1800465;77;21049;-54
2021/09/09 07:08:23;;;;;;;11.60;6.55;;;;;;;17.77;60.74;100375.86;1780967;78;20939;-55
2021/09/09 07:10:51;;;;;;;6.37;5.47;;;;;;;17.84;60.92;100379.03;1774199;79;20961;-55
2021/09/09 07:13:17;;;;;;;6.05;5.50;;;;;;;17.92;60.48;100375.30;1773065;78;21103;-54
2021/09/09 07:15:44;;;;;;;10.30;7.72;;;;;;;17.98;60.40;100377.09;1772773;79;22954;-55
2021/09/09 07:18:11;;;;;;;6.65;6.00;;;;;;;18.06;60.34;100375.20;1772217;78;21427;-54
2021/09/09 07:20:37;;;;;;;7.45;5.90;;;;;;;18.13;60.32;100373.80;1756733;79;20914;-54
2021/09/09 07:23:04;;;;;;;10.15;6.10;;;;;;;18.19;60.60;100376.11;1753673;81;21391;-54
2021/09/09 07:25:30;;;;;;;7.92;6.15;;;;;;;18.27;60.06;100374.22;1749585;80;22434;-54
2021/09/09 07:27:58;;;;;;;7.95;5.92;;;;;;;18.34;59.78;100375.03;1750879;81;21093;-55
2021/09/09 07:30:24;;;;;;;12.68;7.42;;;;;;;18.42;59.30;100382.66;1733329;80;21112;-54
2021/09/09 07:32:51;;;;;;;7.87;6.17;;;;;;;18.49;58.94;100372.58;1759001;79;21090;-54
2021/09/09 07:35:17;;;;;;;7.05;6.22;;;;;;;18.56;58.92;100379.83;1754257;80;21103;-55
2021/09/09 07:37:46;;;;;;;9.53;6.53;;;;;;;18.67;58.60;100381.83;1758597;80;21293;-55
2021/09/09 07:40:12;;;;;;;8.25;6.05;;;;;;;18.73;58.34;100380.01;1762564;79;21125;-54
2021/09/09 07:42:39;;;;;;;8.53;6.03;;;;;;;18.79;57.94;100384.55;1729460;81;21101;-55
2021/09/09 07:45:08;;;;;;;11.65;6.95;;;;;;;18.85;57.91;100384.11;1760107;79;21152;-55
2021/09/09 07:47:34;;;;;;;7.47;6.45;;;;;;;18.92;57.61;100382.28;1735527;81;20984;-55
2021/09/09 07:51:29;;;;;;;8.53;6.35;;;;;;;19.08;57.94;100385.14;1790186;78;28087;-53
2021/09/09 07:53:56;;;;;;;10.72;7.45;;;;;;;19.10;57.76;100387.77;1772868;78;21065;-52
2021/09/09 07:56:23;;;;;;;10.28;6.45;;;;;;;19.18;57.55;100388.07;1772470;79;23170;-52
2021/09/09 07:58:49;;;;;;;6.87;5.40;;;;;;;19.24;57.11;100380.78;1777195;79;21016;-53
2021/09/09 08:01:19;;;;;;;8.38;7.00;;;;;;;19.30;56.94;100384.45;1776920;78;21400;-52
2021/09/09 08:03:46;;;;;;;6.87;6.25;;;;;;;19.35;56.70;100378.14;1776255;79;20981;-53
2021/09/09 08:06:13;;;;;;;8.20;6.20;;;;;;;19.40;56.85;100377.30;1767418;79;21394;-53
2021/09/09 08:08:40;;;;;;;6.95;6.30;;;;;;;19.48;56.68;100377.62;1772821;79;21448;-53
2021/09/09 08:11:07;;;;;;;7.15;5.22;;;;;;;19.54;55.90;100377.19;1767312;79;21041;-52
2021/09/09 08:13:34;;;;;;;7.95;5.40;;;;;;;19.60;55.77;100379.94;1765992;79;21053;-53
2021/09/09 08:16:02;;;;;;;9.18;7.15;;;;;;;19.64;55.72;100371.41;1707364;81;21073;-52
2021/09/09 08:18:29;;;;;;;5.65;4.58;;;;;;;19.71;55.92;100368.20;1709512;81;21057;-53
2021/09/09 08:20:55;;;;;;;7.65;4.83;;;;;;;19.76;55.90;100375.05;1706151;81;21119;-53
2021/09/09 08:23:23;;;;;;;9.18;5.33;;;;;;;19.82;55.90;100362.27;1699123;82;21057;-53
2021/09/09 08:25:50;;;;;;;8.70;5.58;;;;;;;19.90;55.67;100365.81;1735938;81;20919;-53
2021/09/09 08:28:17;;;;;;;9.50;5.53;;;;;;;19.97;55.69;100369.31;1737052;81;21045;-54
2021/09/09 08:30:45;;;;;;;6.03;5.42;;;;;;;20.03;55.15;100363.36;1705859;81;21077;-54
2021/09/09 08:33:12;;;;;;;5.75;5.25;;;;;;;20.08;54.87;100366.22;1692633;81;21705;-54
2021/09/09 08:35:40;;;;;;;6.42;5.00;;;;;;;20.13;54.50;100364.89;1699991;81;21530;-54
2021/09/09 08:38:07;;;;;;;9.55;5.60;;;;;;;20.18;54.64;100362.66;1714401;81;21162;-54
2021/09/09 08:40:36;;;;;;;6.75;6.15;;;;;;;20.26;54.85;100359.31;1717347;81;21068;-55
2021/09/09 08:43:02;;;;;;;9.83;5.80;;;;;;;20.34;55.07;100360.48;1712919;81;21781;-55
2021/09/09 08:45:28;;;;;;;5.83;5.22;;;;;;;20.44;55.60;100361.12;1709510;82;21040;-55
2021/09/09 08:47:54;;;;;;;7.55;5.42;;;;;;;20.56;55.51;100362.41;1706655;82;21076;-54
2021/09/09 08:50:21;;;;;;;6.45;5.22;;;;;;;20.66;54.70;100363.41;1700227;82;21087;-54
2021/09/09 08:52:47;;;;;;;6.12;5.35;;;;;;;20.74;54.44;100362.79;1699187;82;21577;-54
2021/09/09 08:55:14;;;;;;;6.90;4.92;;;;;;;20.81;54.67;100365.40;1698657;82;21194;-54
2021/09/09 08:57:40;;;;;;;6.00;5.40;;;;;;;20.90;54.37;100364.66;1694742;82;21441;-54
2021/09/09 09:00:08;;;;;;;6.03;5.12;;;;;;;20.98;53.99;100364.03;1755239;79;22057;-54
2021/09/09 09:02:53;;;;;;;5.90;5.33;;;;;;;21.05;54.13;100357.92;1756097;79;20877;-55
2021/09/09 09:05:20;;;;;;;5.33;3.92;;;;;;;21.13;53.61;100356.80;1754473;79;20903;-54
2021/09/09 09:07:46;;;;;;;6.90;5.17;;;;;;;21.23;52.99;100351.46;1756866;80;20946;-54
2021/09/09 09:10:13;;;;;;;3.87;3.62;;;;;;;21.31;52.48;100354.93;1649391;84;21155;-54
2021/09/09 09:12:47;;;;;;;3.98;3.25;;;;;;;21.37;52.76;100358.02;1702839;83;20968;-54
2021/09/09 09:15:18;;;;;;;7.28;4.58;;;;;;;21.43;52.04;100353.42;1701144;82;20967;-54
2021/09/09 09:18:06;;;;;;;9.93;4.25;;;;;;;21.51;51.06;100347.30;1701622;82;21496;-54
2021/09/09 09:20:48;;;;;;;4.50;3.35;;;;;;;21.54;50.40;100352.50;1758006;79;21378;-54
2021/09/09 09:23:26;;;;;;;4.35;3.35;;;;;;;21.54;50.24;100337.43;1759852;79;21544;-54
2021/09/09 09:25:56;;;;;;;4.00;3.60;;;;;;;21.58;51.11;100335.31;1760706;79;21002;-53
2021/09/09 09:28:43;;;;;;;4.15;3.83;;;;;;;21.64;51.06;100339.77;1755580;79;20931;-54
2021/09/09 09:31:15;;;;;;;6.40;3.75;;;;;;;21.71;50.65;100329.16;1759635;80;21460;-54
2021/09/09 09:33:50;;;;;;;3.67;3.37;;;;;;;21.78;50.90;100326.25;1753416;79;22084;-54
2021/09/09 09:36:26;;;;;;;3.22;2.58;;;;;;;21.84;50.62;100324.38;1757949;79;21356;-55
2021/09/09 09:38:55;;;;;;;5.12;3.33;;;;;;;21.92;50.17;100330.56;1756001;80;20981;-54
2021/09/09 09:41:24;;;;;;;5.78;3.20;;;;;;;21.96;48.93;100324.67;1760946;79;20923;-55
2021/09/09 09:43:56;;;;;;;5.28;3.17;;;;;;;21.98;48.71;100323.20;1756690;80;20874;-54
2021/09/09 09:46:29;;;;;;;4.62;3.37;;;;;;;22.00;48.50;100311.62;1695758;82;21046;-55
2021/09/09 09:48:58;;;;;;;3.90;3.50;;;;;;;22.05;48.63;100314.31;1694014;83;22421;-54
2021/09/09 09:51:41;;;;;;;5.20;3.70;;;;;;;22.09;48.62;100317.17;1666835;84;21074;-55
2021/09/09 09:54:10;;;;;;;3.52;3.05;;;;;;;22.15;47.57;100317.12;1705395;83;21066;-54
2021/09/09 09:56:36;;;;;;;4.37;4.08;;;;;;;22.12;47.18;100314.14;1704805;83;21108;-55
2021/09/09 09:59:03;;;;;;;2.87;2.67;;;;;;;22.12;46.76;100312.77;1705156;81;21082;-54
2021/09/09 10:01:33;;;;;;;3.77;2.83;;;;;;;22.11;46.92;100308.32;1706236;83;21161;-54
2021/09/09 10:04:05;;;;;;;2.72;2.52;;;;;;;22.12;46.43;100303.67;1707087;83;21943;-55
2021/09/09 10:06:31;;;;;;;3.37;3.08;;;;;;;22.14;46.76;100301.67;1696106;84;20952;-55
2021/09/09 10:08:58;;;;;;;3.52;2.75;;;;;;;22.17;46.52;100304.16;1708495;81;21877;-55
2021/09/09 10:11:25;;;;;;;6.10;3.12;;;;;;;22.20;46.59;100299.26;1693105;84;21405;-55
2021/09/09 10:13:51;;;;;;;3.67;3.33;;;;;;;22.23;46.27;100294.02;1708018;83;21482;-54
2021/09/09 10:16:22;;;;;;;4.35;3.58;;;;;;;22.24;45.97;100297.13;1707508;81;21428;-55
2021/09/09 10:18:49;;;;;;;3.37;3.08;;;;;;;22.24;46.20;100288.91;1708414;83;21026;-54
2021/09/09 10:21:41;;;;;;;7.33;3.87;;;;;;;22.25;46.69;100294.76;1706440;83;21279;-55
2021/09/09 10:24:20;;;;;;;3.67;3.33;;;;;;;22.29;46.92;100290.73;1663975;82;21481;-54
2021/09/09 10:26:46;;;;;;;4.00;3.70;;;;;;;22.33;46.85;100286.72;1693618;83;21949;-54
2021/09/09 10:29:59;;;;;;;3.60;3.30;;;;;;;22.37;46.98;100289.54;1708300;83;21056;-55
2021/09/09 10:32:39;;;;;;;5.37;3.75;;;;;;;22.41;46.73;100291.02;1693859;83;21586;-55
2021/09/09 10:35:26;;;;;;;4.97;3.42;;;;;;;22.46;46.29;100288.73;1693739;82;21075;-54
2021/09/09 10:37:56;;;;;;;3.17;2.33;;;;;;;22.48;45.77;100283.98;1705606;83;21093;-55
2021/09/09 10:40:32;;;;;;;4.55;3.77;;;;;;;22.52;46.07;100284.59;1704064;83;21232;-54
2021/09/09 10:43:12;;;;;;;5.60;2.55;;;;;;;22.55;45.17;100280.17;1706384;83;21034;-54
2021/09/09 10:45:44;;;;;;;3.02;2.83;;;;;;;22.56;44.89;100277.30;1707909;81;22319;-54
2021/09/09 10:48:21;;;;;;;6.97;3.22;;;;;;;22.58;45.20;100279.41;1651008;85;21103;-53
2021/09/09 10:51:12;;;;;;;3.30;2.95;;;;;;;22.60;45.28;100271.05;1694669;82;21145;-55
2021/09/09 10:53:45;;;;;;;5.37;2.98;;;;;;;22.63;45.83;100273.00;1672395;83;21144;-54
2021/09/09 10:56:19;;;;;;;3.37;2.90;;;;;;;22.69;45.97;100274.84;1706729;81;21053;-55
2021/09/09 10:58:57;;;;;;;4.97;3.30;;;;;;;22.74;45.46;100280.30;1703295;81;22251;-55
2021/09/09 11:01:24;;;;;;;6.58;2.95;;;;;;;22.80;44.83;100267.89;1690009;81;20991;-55
2021/09/09 11:03:50;;;;;;;4.65;2.80;;;;;;;22.83;44.10;100265.75;1712565;81;21618;-55
2021/09/09 11:06:23;;;;;;;2.50;2.30;;;;;;;22.83;44.10;100268.49;1714075;81;21303;-55
2021/09/09 11:08:56;;;;;;;14.37;3.40;;;;;;;22.85;44.75;100260.99;1680113;83;21124;-54
2021/09/09 11:11:29;;;;;;;4.12;1.98;;;;;;;22.89;44.78;100260.19;1712881;81;21505;-54
2021/09/09 11:14:05;;;;;;;2.62;2.42;;;;;;;22.91;45.04;100250.81;1713251;81;21523;-54
2021/09/09 11:16:35;;;;;;;3.20;2.90;;;;;;;22.95;44.64;100239.94;1711095;81;21025;-54
2021/09/09 11:19:03;;;;;;;6.20;2.95;;;;;;;22.97;44.84;100241.14;1712683;81;22272;-54
2021/09/09 11:21:37;;;;;;;3.92;2.45;;;;;;;23.01;44.47;100243.98;1712338;81;21810;-54
2021/09/09 11:24:07;;;;;;;5.50;3.02;;;;;;;23.04;44.11;100245.08;1707005;81;21081;-54
2021/09/09 11:26:35;;;;;;;4.42;1.72;;;;;;;23.04;44.52;100235.47;1707042;81;21236;-55